Time;durP1;ratioP1;P1;durP2;ratioP2;P2;SDS_P1;SDS_P2;PMS_P1;PMS_P2;Temp;Humidity;BMP_temperature;BMP_pressure;BME280_temperature;BME280_humidity;BME280_pressure;Samples;Min_cycle;Max_cycle;Signal;HPM_P1;HPM_P2
2021/06/30 00:02:17;;;;;;;10.65;5.28;;;;;;;19.25;100.00;98687.10;1650170;85;21518;-68
2021/06/30 00:04:45;;;;;;;12.53;5.50;;;;;;;19.25;100.00;98689.77;1650400;85;21092;-68
2021/06/30 00:07:14;;;;;;;10.38;5.37;;;;;;;19.26;100.00;98691.98;1627938;85;20871;-68
2021/06/30 00:09:42;;;;;;;9.48;5.28;;;;;;;19.26;100.00;98697.33;1623556;87;21593;-68
2021/06/30 00:12:11;;;;;;;10.50;5.22;;;;;;;19.24;100.00;98692.05;1625544;87;21521;-68
2021/06/30 00:14:39;;;;;;;17.10;6.20;;;;;;;19.24;100.00;98690.72;1623628;87;21461;-68
2021/06/30 00:17:09;;;;;;;12.60;5.65;;;;;;;19.25;100.00;98685.77;1623760;87;21506;-68
2021/06/30 00:19:39;;;;;;;13.15;5.97;;;;;;;19.27;100.00;98679.87;1625452;87;20902;-68
2021/06/30 00:22:06;;;;;;;12.43;6.40;;;;;;;19.26;100.00;98684.82;1643991;85;20995;-67
2021/06/30 00:24:35;;;;;;;13.85;6.05;;;;;;;19.23;100.00;98693.46;1649735;85;20919;-68
2021/06/30 00:27:04;;;;;;;11.18;6.50;;;;;;;19.18;100.00;98685.66;1638377;85;21018;-68
2021/06/30 00:29:32;;;;;;;18.23;6.72;;;;;;;19.14;100.00;98688.95;1625569;87;21077;-67
2021/06/30 00:32:00;;;;;;;17.25;6.83;;;;;;;19.11;100.00;98680.22;1624373;85;20975;-68
2021/06/30 00:34:28;;;;;;;18.30;7.08;;;;;;;19.08;100.00;98683.91;1623757;87;21019;-67
2021/06/30 00:36:56;;;;;;;14.90;6.45;;;;;;;19.07;100.00;98676.83;1623586;87;20983;-68
2021/06/30 00:39:25;;;;;;;17.07;7.05;;;;;;;19.08;100.00;98675.89;1625725;87;20983;-67
2021/06/30 00:41:56;;;;;;;15.90;7.78;;;;;;;19.08;100.00;98683.91;1625701;87;21105;-67
2021/06/30 00:44:22;;;;;;;15.75;8.30;;;;;;;19.07;100.00;98679.97;1623606;87;21465;-68
2021/06/30 00:46:50;;;;;;;24.27;7.62;;;;;;;19.02;100.00;98680.19;1625396;87;21473;-67
2021/06/30 00:49:19;;;;;;;21.05;6.85;;;;;;;18.95;100.00;98682.76;1645626;84;21461;-68
2021/06/30 00:51:48;;;;;;;19.73;7.00;;;;;;;18.95;100.00;98684.56;1662748;85;21009;-68
2021/06/30 00:54:16;;;;;;;18.90;6.20;;;;;;;18.92;100.00;98684.68;1662711;85;21086;-68
2021/06/30 00:56:45;;;;;;;15.93;6.20;;;;;;;18.90;100.00;98686.09;1649367;84;21619;-68
2021/06/30 00:59:13;;;;;;;13.55;6.40;;;;;;;18.89;100.00;98689.70;1636000;86;20958;-68
2021/06/30 01:01:41;;;;;;;14.40;5.65;;;;;;;18.86;100.00;98689.37;1637512;86;21465;-68
2021/06/30 01:04:09;;;;;;;15.53;6.30;;;;;;;18.85;100.00;98687.64;1636086;86;21006;-68
2021/06/30 01:06:36;;;;;;;16.23;6.75;;;;;;;18.86;100.00;98692.05;1635946;86;21107;-68
2021/06/30 01:09:06;;;;;;;12.47;6.45;;;;;;;18.85;100.00;98691.65;1636214;86;21460;-68
2021/06/30 01:11:34;;;;;;;18.35;6.85;;;;;;;18.84;100.00;98687.71;1637584;86;21015;-68
2021/06/30 01:14:03;;;;;;;14.47;6.60;;;;;;;18.86;100.00;98689.37;1635893;86;21438;-68
2021/06/30 01:16:31;;;;;;;14.53;6.40;;;;;;;18.86;100.00;98681.36;1636061;86;20982;-68
2021/06/30 01:18:59;;;;;;;25.55;6.87;;;;;;;18.86;100.00;98684.03;1635774;86;21142;-68
2021/06/30 01:21:27;;;;;;;17.62;6.30;;;;;;;18.84;100.00;98684.57;1638910;85;21461;-68
2021/06/30 01:23:55;;;;;;;15.32;6.17;;;;;;;18.79;100.00;98678.58;1662706;85;21011;-68
2021/06/30 01:26:24;;;;;;;13.45;6.78;;;;;;;18.75;100.00;98668.97;1643104;85;21481;-68
2021/06/30 01:28:52;;;;;;;14.40;5.85;;;;;;;18.71;100.00;98672.72;1635777;86;20882;-68
2021/06/30 01:31:19;;;;;;;14.07;6.62;;;;;;;18.69;100.00;98670.59;1635725;86;21100;-68
2021/06/30 01:33:47;;;;;;;9.15;5.78;;;;;;;18.67;100.00;98667.13;1637565;86;20898;-68
2021/06/30 01:36:15;;;;;;;13.90;6.70;;;;;;;18.66;100.00;98667.20;1636166;86;20954;-67
2021/06/30 01:38:43;;;;;;;16.70;7.53;;;;;;;18.64;100.00;98665.94;1635807;86;21534;-67
2021/06/30 01:41:14;;;;;;;13.28;6.60;;;;;;;18.62;100.00;98661.13;1635940;86;21026;-68
2021/06/30 01:43:40;;;;;;;13.40;6.62;;;;;;;18.61;100.00;98659.84;1637914;86;21149;-67
2021/06/30 01:46:09;;;;;;;18.05;7.30;;;;;;;18.60;100.00;98662.11;1635907;86;20942;-67
2021/06/30 01:48:38;;;;;;;38.23;8.58;;;;;;;18.59;100.00;98666.59;1636354;86;21572;-68
2021/06/30 01:51:07;;;;;;;25.40;7.65;;;;;;;18.60;100.00;98671.45;1635885;86;20970;-68
2021/06/30 01:53:35;;;;;;;41.45;8.43;;;;;;;18.59;100.00;98676.41;1637964;86;20970;-68
2021/06/30 01:56:03;;;;;;;20.95;8.48;;;;;;;18.58;100.00;98680.01;1637807;86;21095;-68
2021/06/30 01:58:30;;;;;;;25.23;7.78;;;;;;;18.55;100.00;98679.22;1636046;86;20903;-68
2021/06/30 02:00:59;;;;;;;32.63;9.38;;;;;;;18.53;100.00;98681.56;1635820;86;21015;-68
2021/06/30 02:03:27;;;;;;;22.87;8.00;;;;;;;18.49;100.00;98678.16;1637131;86;21042;-68
2021/06/30 02:05:55;;;;;;;20.32;7.87;;;;;;;18.50;100.00;98683.03;1665336;83;21520;-68
2021/06/30 02:08:23;;;;;;;15.45;8.13;;;;;;;18.52;100.00;98682.49;1690683;83;21120;-68
2021/06/30 02:10:52;;;;;;;15.13;7.45;;;;;;;18.52;100.00;98691.84;1690615;83;21596;-68
2021/06/30 02:13:20;;;;;;;15.18;8.40;;;;;;;18.50;100.00;98694.58;1660229;83;20973;-68
2021/06/30 02:15:48;;;;;;;16.67;8.60;;;;;;;18.49;100.00;98691.52;1638058;86;20921;-68
2021/06/30 02:18:17;;;;;;;17.23;7.87;;;;;;;18.49;100.00;98691.52;1635839;86;21517;-67
2021/06/30 02:20:46;;;;;;;10.72;6.70;;;;;;;18.49;100.00;98695.52;1648157;86;21908;-68
2021/06/30 02:23:14;;;;;;;23.12;8.10;;;;;;;18.52;100.00;98699.39;1657209;85;20954;-68
2021/06/30 02:25:42;;;;;;;21.82;7.97;;;;;;;18.53;100.00;98697.12;1637725;85;21457;-68
2021/06/30 02:28:10;;;;;;;23.47;9.08;;;;;;;18.54;100.00;98699.31;1636282;86;21030;-68
2021/06/30 02:30:38;;;;;;;23.00;8.50;;;;;;;18.53;100.00;98703.80;1636268;86;20981;-68
2021/06/30 02:33:06;;;;;;;16.52;8.53;;;;;;;18.53;100.00;98696.25;1635845;86;21103;-68
2021/06/30 02:35:34;;;;;;;16.23;7.50;;;;;;;18.54;100.00;98697.52;1638022;86;21504;-68
2021/06/30 02:38:03;;;;;;;18.55;7.55;;;;;;;18.56;100.00;98700.98;1636071;86;21014;-67
2021/06/30 02:40:32;;;;;;;18.40;8.60;;;;;;;18.58;100.00;98698.23;1645599;85;20911;-67
2021/06/30 02:43:00;;;;;;;19.25;8.50;;;;;;;18.60;100.00;98691.49;1663230;85;20962;-67
2021/06/30 02:45:28;;;;;;;18.77;8.40;;;;;;;18.60;100.00;98691.02;1662885;85;21155;-67
2021/06/30 02:47:56;;;;;;;16.62;7.00;;;;;;;18.62;100.00;98697.66;1662858;85;21577;-67
2021/06/30 02:50:25;;;;;;;17.73;7.10;;;;;;;18.65;100.00;98692.18;1660668;85;21489;-67
2021/06/30 02:52:53;;;;;;;11.95;7.62;;;;;;;18.70;100.00;98692.83;1663031;85;21011;-67
2021/06/30 02:55:21;;;;;;;11.35;7.90;;;;;;;18.74;100.00;98686.41;1660645;85;21476;-67
2021/06/30 02:57:49;;;;;;;16.27;7.70;;;;;;;18.79;100.00;98691.06;1663025;85;21084;-67
2021/06/30 03:00:21;;;;;;;13.28;7.00;;;;;;;18.83;100.00;98694.00;1650947;85;20926;-67
2021/06/30 03:02:49;;;;;;;15.23;6.60;;;;;;;18.87;100.00;98690.23;1637879;86;20954;-67
2021/06/30 03:05:16;;;;;;;13.00;6.25;;;;;;;18.94;100.00;98689.52;1635866;86;21441;-67
2021/06/30 03:07:44;;;;;;;14.53;6.80;;;;;;;19.00;100.00;98695.44;1653335;85;20895;-67
2021/06/30 03:10:13;;;;;;;11.68;7.30;;;;;;;19.06;100.00;98700.95;1662456;85;21058;-66
2021/06/30 03:12:42;;;;;;;12.85;7.58;;;;;;;19.13;100.00;98703.73;1660263;85;21466;-64
2021/06/30 03:15:11;;;;;;;13.98;7.37;;;;;;;19.21;100.00;98711.39;1662764;85;20951;-67
2021/06/30 03:17:38;;;;;;;12.80;7.75;;;;;;;19.29;100.00;98710.55;1662943;85;21014;-67
2021/06/30 03:20:10;;;;;;;20.57;8.58;;;;;;;19.36;100.00;98710.64;1662563;85;21441;-68
2021/06/30 03:22:39;;;;;;;15.28;8.63;;;;;;;19.43;100.00;98714.78;1643143;85;21046;-66
2021/06/30 03:25:11;;;;;;;15.28;8.15;;;;;;;19.49;100.00;98718.50;1651991;85;20954;-66
2021/06/30 03:27:41;;;;;;;18.73;7.85;;;;;;;19.57;100.00;98723.50;1635891;86;20958;-66
2021/06/30 03:30:11;;;;;;;18.45;8.53;;;;;;;19.65;100.00;98718.64;1641637;85;21006;-66
2021/06/30 03:32:39;;;;;;;13.60;8.03;;;;;;;19.74;100.00;98719.52;1661055;85;21020;-67
2021/06/30 03:35:08;;;;;;;13.93;8.43;;;;;;;19.81;100.00;98723.14;1662763;85;21438;-66
2021/06/30 03:37:35;;;;;;;18.80;7.90;;;;;;;19.88;100.00;98727.75;1662695;85;20935;-66
2021/06/30 03:40:05;;;;;;;13.93;7.67;;;;;;;19.95;100.00;98725.63;1662839;85;21058;-64
2021/06/30 03:42:33;;;;;;;17.20;7.33;;;;;;;20.03;100.00;98730.11;1662542;85;20946;-66
2021/06/30 03:45:00;;;;;;;12.93;6.85;;;;;;;20.09;100.00;98723.97;1660881;85;21199;-64
2021/06/30 03:47:29;;;;;;;19.70;7.80;;;;;;;20.17;100.00;98728.06;1662577;85;21919;-66
2021/06/30 03:49:58;;;;;;;20.60;7.70;;;;;;;20.21;100.00;98730.50;1653466;85;21608;-64
2021/06/30 03:52:26;;;;;;;21.17;6.72;;;;;;;20.26;100.00;98732.95;1624900;87;21526;-66
2021/06/30 03:54:54;;;;;;;23.27;6.62;;;;;;;20.30;100.00;98732.70;1625449;85;21513;-66
2021/06/30 03:57:22;;;;;;;16.93;6.42;;;;;;;20.34;100.00;98724.94;1625525;87;20979;-66
2021/06/30 03:59:50;;;;;;;12.88;6.53;;;;;;;20.37;100.00;98732.81;1623750;87;21111;-65
2021/06/30 04:02:20;;;;;;;14.20;6.90;;;;;;;20.39;100.00;98728.27;1625379;85;20915;-66
2021/06/30 04:04:48;;;;;;;14.40;6.55;;;;;;;20.37;100.00;98722.56;1623693;87;21007;-66
2021/06/30 04:07:16;;;;;;;14.18;6.03;;;;;;;20.35;100.00;98723.13;1625849;87;20919;-64
2021/06/30 04:09:44;;;;;;;16.12;6.70;;;;;;;20.37;100.00;98722.09;1624697;85;21505;-66
2021/06/30 04:12:12;;;;;;;12.03;6.58;;;;;;;20.43;100.00;98734.33;1623653;87;21106;-63
2021/06/30 04:14:39;;;;;;;15.63;6.58;;;;;;;20.46;100.00;98727.47;1625674;87;20883;-64
2021/06/30 04:17:08;;;;;;;19.92;7.67;;;;;;;20.49;100.00;98730.46;1623921;87;21022;-66
2021/06/30 04:19:35;;;;;;;19.25;7.83;;;;;;;20.54;100.00;98727.06;1623747;87;21078;-66
2021/06/30 04:22:04;;;;;;;16.50;7.28;;;;;;;20.60;100.00;98723.58;1624007;87;20983;-66
2021/06/30 04:24:32;;;;;;;12.55;8.03;;;;;;;20.69;100.00;98732.94;1626525;85;21081;-65
2021/06/30 04:27:00;;;;;;;15.50;8.90;;;;;;;20.78;100.00;98736.47;1649808;85;20911;-67
2021/06/30 04:29:27;;;;;;;22.50;8.80;;;;;;;20.83;100.00;98734.91;1650164;85;20860;-66
2021/06/30 04:31:56;;;;;;;18.00;9.48;;;;;;;20.89;100.00;98726.05;1649827;85;21018;-66
2021/06/30 04:34:24;;;;;;;18.87;9.63;;;;;;;20.96;100.00;98723.42;1648204;85;21461;-64
2021/06/30 04:36:51;;;;;;;13.60;10.10;;;;;;;21.02;100.00;98725.77;1650089;85;21791;-63
2021/06/30 04:39:22;;;;;;;18.92;11.30;;;;;;;21.08;100.00;98727.24;1650247;85;20999;-67
2021/06/30 04:41:50;;;;;;;19.00;11.48;;;;;;;21.13;100.00;98721.63;1649641;85;21041;-65
2021/06/30 04:44:18;;;;;;;17.95;11.43;;;;;;;21.16;100.00;98727.69;1650068;85;21509;-63
2021/06/30 04:46:47;;;;;;;16.55;10.93;;;;;;;21.20;100.00;98727.91;1625588;86;20907;-67
2021/06/30 04:49:15;;;;;;;16.12;10.35;;;;;;;21.26;100.00;98720.88;1639183;85;21108;-67
2021/06/30 04:51:45;;;;;;;21.68;9.93;;;;;;;21.35;100.00;98716.84;1662206;85;21446;-67
2021/06/30 04:54:14;;;;;;;15.10;8.33;;;;;;;21.49;100.00;98711.55;1655564;85;21509;-64
2021/06/30 04:56:42;;;;;;;14.33;8.30;;;;;;;21.61;100.00;98714.01;1637591;86;21025;-64
2021/06/30 04:59:10;;;;;;;56.65;11.40;;;;;;;21.75;100.00;98719.91;1635986;86;21017;-67
2021/06/30 05:01:38;;;;;;;12.53;8.88;;;;;;;21.88;100.00;98718.27;1655784;85;21158;-65
2021/06/30 05:04:05;;;;;;;17.70;9.00;;;;;;;21.98;100.00;98718.11;1656525;84;20910;-65
2021/06/30 05:06:35;;;;;;;17.35;9.18;;;;;;;22.08;100.00;98717.12;1636045;86;20972;-64
2021/06/30 05:09:02;;;;;;;18.12;9.23;;;;;;;22.16;100.00;98715.70;1635906;86;20979;-64
2021/06/30 05:11:31;;;;;;;17.90;8.20;;;;;;;22.25;100.00;98712.49;1647596;85;20958;-64
2021/06/30 05:14:00;;;;;;;12.58;8.20;;;;;;;22.33;100.00;98705.31;1686516;85;20902;-66
2021/06/30 05:16:27;;;;;;;22.05;8.88;;;;;;;22.44;100.00;98711.37;1637601;86;21429;-65
2021/06/30 05:18:56;;;;;;;14.18;8.73;;;;;;;22.53;100.00;98710.80;1635893;86;20958;-66
2021/06/30 05:21:24;;;;;;;67.82;11.50;;;;;;;22.61;100.00;98708.02;1661698;83;21457;-64
2021/06/30 05:23:52;;;;;;;14.80;8.43;;;;;;;22.73;100.00;98704.22;1672211;84;20962;-65
2021/06/30 05:26:20;;;;;;;9.78;7.65;;;;;;;22.85;100.00;98704.82;1662708;85;21097;-67
2021/06/30 05:28:48;;;;;;;14.28;7.30;;;;;;;22.97;100.00;98708.08;1662887;85;20954;-66
2021/06/30 05:31:15;;;;;;;10.00;7.05;;;;;;;23.12;100.00;98713.82;1662593;85;21015;-66
2021/06/30 05:33:44;;;;;;;9.43;6.97;;;;;;;23.23;100.00;98714.51;1660539;85;20957;-63
2021/06/30 05:36:11;;;;;;;8.65;6.22;;;;;;;23.33;100.00;98712.95;1662533;84;21600;-63
2021/06/30 05:38:39;;;;;;;9.38;6.50;;;;;;;23.46;100.00;98709.84;1662867;84;21083;-64
2021/06/30 05:41:06;;;;;;;10.20;6.55;;;;;;;23.60;100.00;98704.92;1662616;85;20859;-64
2021/06/30 05:43:36;;;;;;;7.67;5.37;;;;;;;23.73;100.00;98709.03;1660787;85;21458;-64
2021/06/30 05:46:05;;;;;;;9.20;5.67;;;;;;;23.89;100.00;98706.17;1662546;85;20875;-64
2021/06/30 05:48:33;;;;;;;8.05;5.55;;;;;;;24.02;100.00;98710.63;1662317;85;21426;-64
2021/06/30 05:51:00;;;;;;;20.35;6.20;;;;;;;24.16;100.00;98707.89;1662153;84;21153;-65
2021/06/30 05:53:28;;;;;;;27.45;6.25;;;;;;;24.30;100.00;98708.31;1657913;86;20983;-67
2021/06/30 05:55:56;;;;;;;13.13;5.37;;;;;;;24.45;100.00;98706.39;1639905;85;20950;-67
2021/06/30 05:58:23;;;;;;;8.65;5.47;;;;;;;24.57;100.00;98709.57;1635678;86;20918;-67
2021/06/30 06:00:52;;;;;;;8.58;5.90;;;;;;;24.73;100.00;98714.78;1636003;86;20930;-68
2021/06/30 06:03:21;;;;;;;7.70;5.55;;;;;;;24.86;100.00;98706.19;1636256;86;21062;-67
2021/06/30 06:05:59;;;;;;;11.53;5.70;;;;;;;25.01;100.00;98711.00;1637647;85;20931;-69
2021/06/30 06:08:40;;;;;;;11.53;6.45;;;;;;;25.17;100.00;98708.09;1632745;86;20991;-68
2021/06/30 06:11:12;;;;;;;18.25;6.70;;;;;;;25.32;100.00;98702.43;1611210;86;20978;-67
2021/06/30 06:13:40;;;;;;;12.63;6.08;;;;;;;25.47;100.00;98699.08;1633403;86;20924;-67
2021/06/30 06:16:10;;;;;;;8.93;6.35;;;;;;;25.61;100.00;98698.95;1644776;86;21482;-67
2021/06/30 06:18:39;;;;;;;8.83;6.20;;;;;;;25.77;100.00;98696.48;1683152;83;21499;-66
2021/06/30 06:21:09;;;;;;;10.28;6.37;;;;;;;25.93;100.00;98698.39;1678331;83;21518;-67
2021/06/30 06:23:36;;;;;;;9.85;6.10;;;;;;;26.08;100.00;98697.74;1635178;86;20944;-66
2021/06/30 06:26:03;;;;;;;8.75;5.60;;;;;;;26.19;100.00;98694.58;1634824;86;20979;-66
2021/06/30 06:28:33;;;;;;;6.50;5.40;;;;;;;26.31;100.00;98691.41;1633282;86;21095;-67
2021/06/30 06:31:03;;;;;;;9.05;5.75;;;;;;;26.41;100.00;98689.75;1654506;85;20941;-66
2021/06/30 06:33:31;;;;;;;6.33;5.37;;;;;;;26.50;100.00;98689.55;1611862;87;20947;-66
2021/06/30 06:35:58;;;;;;;7.55;5.67;;;;;;;26.60;100.00;98683.78;1633155;86;20996;-66
2021/06/30 06:38:26;;;;;;;60.92;7.87;;;;;;;26.66;100.00;98684.66;1635376;86;21004;-66
2021/06/30 06:40:55;;;;;;;53.15;8.03;;;;;;;26.70;100.00;98682.07;1633231;86;21238;-66
2021/06/30 06:43:23;;;;;;;9.50;5.25;;;;;;;26.80;100.00;98683.55;1633451;86;20963;-67
2021/06/30 06:45:51;;;;;;;58.13;9.83;;;;;;;26.88;100.00;98681.09;1637253;86;20999;-66
2021/06/30 06:48:19;;;;;;;9.95;5.65;;;;;;;26.99;100.00;98685.22;1630737;86;21045;-66
2021/06/30 06:50:47;;;;;;;10.53;5.75;;;;;;;27.11;100.00;98690.13;1635979;86;20982;-66
2021/06/30 06:53:14;;;;;;;7.62;5.80;;;;;;;27.14;100.00;98686.67;1636152;86;21082;-66
2021/06/30 06:55:42;;;;;;;6.20;5.62;;;;;;;27.17;100.00;98686.92;1636076;86;20922;-66
2021/06/30 06:58:10;;;;;;;8.73;5.45;;;;;;;27.22;100.00;98687.41;1637681;86;21465;-66
2021/06/30 07:00:38;;;;;;;6.25;5.25;;;;;;;27.26;100.00;98687.52;1639885;86;21006;-66
2021/06/30 07:03:06;;;;;;;9.73;6.17;;;;;;;27.25;100.00;98684.45;1636036;86;21445;-66
2021/06/30 07:05:34;;;;;;;7.92;5.75;;;;;;;27.23;100.00;98675.09;1636038;86;21087;-65
2021/06/30 07:08:02;;;;;;;9.83;6.17;;;;;;;27.20;100.00;98676.70;1635895;86;20894;-66
2021/06/30 07:10:29;;;;;;;10.98;5.65;;;;;;;27.19;100.00;98674.98;1659098;84;20986;-66
2021/06/30 07:12:58;;;;;;;118.17;12.40;;;;;;;27.15;100.00;98679.41;1635931;86;21525;-67
2021/06/30 07:15:29;;;;;;;16.45;5.55;;;;;;;27.14;100.00;98676.34;1610349;87;20914;-65
2021/06/30 07:17:57;;;;;;;336.23;28.55;;;;;;;27.17;100.00;98671.53;1609644;87;21457;-64
2021/06/30 07:20:25;;;;;;;21.02;7.20;;;;;;;27.22;100.00;98669.80;1633972;86;20919;-65
2021/06/30 07:22:53;;;;;;;13.25;5.17;;;;;;;27.26;100.00;98668.07;1627499;85;21084;-65
2021/06/30 07:25:20;;;;;;;10.28;5.75;;;;;;;27.37;100.00;98664.48;1610106;87;21512;-64
2021/06/30 07:27:48;;;;;;;5.85;4.55;;;;;;;27.47;100.00;98665.47;1659320;84;20914;-65
2021/06/30 07:30:17;;;;;;;8.10;5.47;;;;;;;27.55;100.00;98663.48;1656973;84;21135;-64
2021/06/30 07:32:44;;;;;;;7.33;5.25;;;;;;;27.70;100.00;98658.66;1616110;86;21505;-66
2021/06/30 07:35:12;;;;;;;6.20;5.60;;;;;;;27.77;100.00;98658.00;1620446;86;20918;-62
2021/06/30 07:37:40;;;;;;;11.73;6.22;;;;;;;27.85;100.00;98660.06;1614971;86;21026;-64
2021/06/30 07:40:11;;;;;;;15.23;6.00;;;;;;;27.91;100.00;98655.52;1605380;88;20989;-63
2021/06/30 07:42:39;;;;;;;21.87;6.07;;;;;;;27.97;100.00;98650.92;1610016;87;21868;-64
2021/06/30 07:45:08;;;;;;;10.28;6.33;;;;;;;28.02;100.00;98645.11;1609915;87;20922;-64
2021/06/30 07:47:35;;;;;;;9.73;5.80;;;;;;;28.07;100.00;98641.50;1625777;86;21006;-65
2021/06/30 07:50:05;;;;;;;21.82;6.40;;;;;;;28.11;100.00;98642.96;1619565;86;21545;-64
2021/06/30 07:52:33;;;;;;;8.70;5.47;;;;;;;28.13;100.00;98644.55;1609720;87;21026;-64
2021/06/30 07:55:01;;;;;;;23.60;8.15;;;;;;;28.18;100.00;98644.16;1629236;86;21142;-64
2021/06/30 07:57:29;;;;;;;10.88;6.65;;;;;;;28.25;100.00;98644.02;1632025;86;21017;-63
2021/06/30 07:59:57;;;;;;;8.60;5.80;;;;;;;28.29;100.00;98649.54;1634612;86;21029;-65
2021/06/30 08:02:24;;;;;;;15.83;6.28;;;;;;;28.30;100.00;98646.33;1634339;86;20974;-64
2021/06/30 08:04:52;;;;;;;9.23;5.75;;;;;;;28.33;100.00;98644.70;1634639;86;21433;-67
2021/06/30 08:07:21;;;;;;;5.87;5.28;;;;;;;28.37;100.00;98655.66;1646361;85;21164;-64
2021/06/30 08:09:49;;;;;;;11.22;5.37;;;;;;;28.43;100.00;98655.16;1662749;84;20958;-65
2021/06/30 08:12:17;;;;;;;7.87;5.60;;;;;;;28.46;100.00;98653.03;1662682;85;20947;-66
2021/06/30 08:14:46;;;;;;;9.83;5.58;;;;;;;28.51;100.00;98641.77;1638015;84;20928;-65
2021/06/30 08:17:15;;;;;;;6.30;5.10;;;;;;;28.61;100.00;98654.89;1616806;86;21469;-65
2021/06/30 08:19:43;;;;;;;9.93;5.92;;;;;;;28.66;100.00;98653.98;1609707;87;21074;-64
2021/06/30 08:22:12;;;;;;;7.17;5.47;;;;;;;28.66;100.00;98647.70;1609717;87;20961;-64
2021/06/30 08:24:41;;;;;;;13.20;5.85;;;;;;;28.69;100.00;98642.86;1618017;85;21034;-65
2021/06/30 08:27:13;;;;;;;7.83;5.28;;;;;;;28.74;100.00;98643.81;1621313;86;21521;-66
2021/06/30 08:29:42;;;;;;;8.48;5.75;;;;;;;28.76;100.00;98637.25;1631830;86;20929;-66
2021/06/30 08:32:09;;;;;;;81.12;11.88;;;;;;;28.85;100.00;98639.67;1630688;86;21751;-65
2021/06/30 08:34:37;;;;;;;32.65;6.33;;;;;;;28.90;100.00;98642.02;1633194;86;20918;-64
2021/06/30 08:37:08;;;;;;;9.38;5.60;;;;;;;28.91;100.00;98639.16;1634424;86;20979;-65
2021/06/30 08:39:36;;;;;;;268.05;24.52;;;;;;;28.94;100.00;98637.53;1627981;86;21437;-63
2021/06/30 08:42:04;;;;;;;12.43;5.80;;;;;;;28.99;100.00;98639.83;1647160;85;21489;-70
2021/06/30 08:44:31;;;;;;;7.80;4.72;;;;;;;29.02;100.00;98639.05;1618300;85;21532;-65
2021/06/30 08:46:58;;;;;;;8.70;5.00;;;;;;;29.11;100.00;98640.94;1610113;87;20922;-66
2021/06/30 08:49:26;;;;;;;6.28;4.97;;;;;;;29.20;100.00;98631.59;1610092;87;20967;-68
2021/06/30 08:51:55;;;;;;;8.53;5.08;;;;;;;29.28;100.00;98631.26;1604685;87;20975;-69
2021/06/30 08:54:23;;;;;;;11.25;4.75;;;;;;;29.37;100.00;98633.67;1608765;87;20975;-67
2021/06/30 08:56:54;;;;;;;8.08;4.80;;;;;;;29.43;100.00;98628.56;1604053;87;21103;-67
2021/06/30 08:59:21;;;;;;;18.35;5.45;;;;;;;29.46;100.00;98630.14;1598064;88;21469;-66
2021/06/30 09:01:49;;;;;;;7.22;5.37;;;;;;;29.52;100.00;98631.43;1599095;88;20954;-65
2021/06/30 09:04:16;;;;;;;6.78;4.70;;;;;;;29.60;100.00;98632.94;1617395;87;20999;-74
2021/06/30 09:06:44;;;;;;;100.80;11.50;;;;;;;29.59;100.00;98626.64;1623225;87;20980;-67
2021/06/30 09:09:15;;;;;;;8.20;5.50;;;;;;;29.51;100.00;98618.84;1619882;87;21446;-70
2021/06/30 09:11:54;;;;;;;10.38;5.25;;;;;;;29.41;100.00;98614.23;1604977;87;37345;-68
2021/06/30 09:14:35;;;;;;;64.27;8.80;;;;;;;29.34;100.00;98616.28;1599661;88;20938;-67
2021/06/30 09:20:07;;;;;;;7.58;5.35;;;;;;;29.40;100.00;98600.28;1597545;88;20950;-67
2021/06/30 09:22:51;;;;;;;19.10;6.10;;;;;;;29.51;100.00;98607.97;1638617;85;21737;-69
2021/06/30 09:25:30;;;;;;;8.55;5.00;;;;;;;29.56;100.00;98603.83;1630781;85;20927;-69
2021/06/30 09:27:58;;;;;;;5.83;4.72;;;;;;;29.66;100.00;98606.55;1593498;87;20982;-67
2021/06/30 09:30:25;;;;;;;11.10;4.95;;;;;;;29.71;100.00;98610.55;1594273;89;20986;-67
2021/06/30 09:32:59;;;;;;;8.13;5.20;;;;;;;29.73;100.00;98616.70;1593919;87;21019;-69
2021/06/30 09:35:32;;;;;;;12.35;5.22;;;;;;;29.76;100.00;98619.14;1636101;85;21139;-70
2021/06/30 09:38:01;;;;;;;103.85;10.45;;;;;;;29.76;100.00;98621.86;1608671;87;20934;-69
2021/06/30 09:40:42;;;;;;;8.15;4.95;;;;;;;29.68;100.00;98620.36;1627241;86;20990;-68
2021/06/30 09:43:32;;;;;;;5.50;4.70;;;;;;;29.63;100.00;98613.63;1594722;87;20899;-71
2021/06/30 09:46:05;;;;;;;10.00;4.97;;;;;;;29.62;100.00;98625.50;1577068;89;21434;-70
2021/06/30 09:48:37;;;;;;;7.97;4.95;;;;;;;29.48;100.00;98625.92;1590400;88;21774;-71
2021/06/30 09:51:05;;;;;;;10.98;4.90;;;;;;;29.39;100.00;98614.87;1589381;88;21022;-71
2021/06/30 09:53:39;;;;;;;32.90;6.42;;;;;;;29.36;100.00;98623.80;1593773;88;20942;-71
2021/06/30 09:56:38;;;;;;;9.08;4.70;;;;;;;29.34;100.00;98619.00;1591306;88;20997;-73
2021/06/30 09:59:28;;;;;;;15.00;4.90;;;;;;;29.37;100.00;98629.59;1593106;88;21001;-72
2021/06/30 10:02:01;;;;;;;7.03;4.87;;;;;;;29.39;100.00;98627.09;1580931;89;21135;-74
2021/06/30 10:04:36;;;;;;;5.10;4.60;;;;;;;29.34;100.00;98620.36;1582711;90;20883;-72
2021/06/30 10:07:12;;;;;;;5.28;4.12;;;;;;;29.35;100.00;98614.79;1581868;89;20923;-71
2021/06/30 10:09:48;;;;;;;4.60;4.05;;;;;;;29.39;100.00;98618.08;1581413;89;20942;-72
2021/06/30 10:12:17;;;;;;;7.45;4.30;;;;;;;29.33;100.00;98618.14;1577238;89;20931;-72
2021/06/30 10:14:46;;;;;;;17.90;5.10;;;;;;;29.34;100.00;98612.22;1610444;87;20961;-71
2021/06/30 10:17:15;;;;;;;7.78;4.90;;;;;;;29.38;100.00;98606.86;1582693;89;20915;-71
2021/06/30 10:19:47;;;;;;;7.17;4.67;;;;;;;29.38;100.00;98609.08;1611311;87;21025;-71
2021/06/30 10:22:14;;;;;;;27.67;5.22;;;;;;;29.40;100.00;98596.20;1582593;89;20979;-71
2021/06/30 10:24:42;;;;;;;6.53;4.45;;;;;;;29.40;100.00;98588.55;1611133;87;20898;-71
2021/06/30 10:27:11;;;;;;;5.22;4.05;;;;;;;29.45;100.00;98595.31;1582472;89;21174;-60
2021/06/30 10:29:43;;;;;;;15.08;4.35;;;;;;;29.57;100.00;98589.23;1610913;87;21587;-69
2021/06/30 10:32:14;;;;;;;60.43;8.33;;;;;;;29.66;100.00;98579.37;1600493;87;20961;-70
2021/06/30 10:34:45;;;;;;;6.35;4.28;;;;;;;29.80;100.00;98576.71;1558314;90;21502;-71
2021/06/30 10:37:24;;;;;;;16.27;4.20;;;;;;;29.99;100.00;98576.72;1558198;90;20935;-71
2021/06/30 10:39:54;;;;;;;5.60;3.87;;;;;;;30.13;100.00;98569.99;1599246;87;21112;-70
2021/06/30 10:42:37;;;;;;;3.80;3.50;;;;;;;30.30;100.00;98566.54;1581138;89;20979;-70
2021/06/30 10:45:21;;;;;;;8.58;3.95;;;;;;;30.46;100.00;98577.66;1581385;89;20963;-68
2021/06/30 10:48:09;;;;;;;12.65;4.42;;;;;;;30.66;100.00;98572.52;1599274;87;20973;-69
2021/06/30 10:50:43;;;;;;;5.00;3.75;;;;;;;30.82;100.00;98577.34;1570148;89;20898;-69
2021/06/30 10:56:03;;;;;;;11.10;5.25;;;;;;;31.08;99.15;98578.84;1607795;87;21480;-70
2021/06/30 10:58:31;;;;;;;5.53;3.90;;;;;;;31.29;98.50;98578.63;1607762;87;21517;-70
2021/06/30 11:01:04;;;;;;;7.47;4.00;;;;;;;31.47;96.50;98590.91;1608156;87;20962;-70
2021/06/30 11:03:54;;;;;;;8.23;3.72;;;;;;;31.46;97.11;98595.50;1607746;88;20957;-69
2021/06/30 11:06:28;;;;;;;4.10;3.70;;;;;;;31.44;97.47;98597.52;1607990;88;21100;-70
2021/06/30 11:09:25;;;;;;;5.42;4.00;;;;;;;31.41;98.40;98592.38;1607830;87;20929;-69
2021/06/30 11:11:56;;;;;;;5.33;3.33;;;;;;;31.40;98.92;98593.39;1607729;87;20966;-70
2021/06/30 11:14:40;;;;;;;6.80;3.80;;;;;;;31.48;100.00;98579.84;1608173;87;20986;-71
2021/06/30 11:17:08;;;;;;;12.60;4.17;;;;;;;31.60;100.00;98584.05;1607911;87;20986;-69
2021/06/30 11:19:39;;;;;;;4.05;3.67;;;;;;;31.72;97.39;98579.28;1608093;87;21044;-70
2021/06/30 11:22:08;;;;;;;4.77;3.57;;;;;;;31.81;91.49;98567.93;1608041;88;20886;-68
2021/06/30 11:24:49;;;;;;;8.10;3.50;;;;;;;31.93;96.21;98567.52;1608160;87;20922;-69
2021/06/30 11:27:34;;;;;;;3.92;3.52;;;;;;;32.00;90.65;98559.56;1608004;87;20941;-70
2021/06/30 11:29:59;;;;;;;13.77;4.27;;;;;;;32.07;87.83;98551.59;1608574;87;20906;-71
2021/06/30 11:32:38;;;;;;;4.00;3.40;;;;;;;32.12;88.29;98536.45;1607937;88;21775;-69
2021/06/30 11:35:19;;;;;;;66.37;7.97;;;;;;;32.19;92.66;98539.42;1608101;87;20914;-70
2021/06/30 11:38:02;;;;;;;8.13;3.95;;;;;;;32.11;89.30;98536.10;1607877;88;20970;-70